sensor_id;sensor_type;location;lat;lon;timestamp;P1;durP1;ratioP1;P2;durP2;ratioP2
21168;SDS011;10742;51.816;8.662;2023-02-28T00:01:28;2.37;;;1.40;;
21168;SDS011;10742;51.816;8.662;2023-02-28T00:04:31;2.27;;;1.20;;
21168;SDS011;10742;51.816;8.662;2023-02-28T00:07:33;2.63;;;1.20;;
21168;SDS011;10742;51.816;8.662;2023-02-28T00:10:36;4.73;;;1.50;;
21168;SDS011;10742;51.816;8.662;2023-02-28T00:13:44;3.23;;;1.27;;
21168;SDS011;10742;51.816;8.662;2023-02-28T00:16:48;4.40;;;1.60;;
21168;SDS011;10742;51.816;8.662;2023-02-28T00:19:51;3.40;;;1.17;;
21168;SDS011;10742;51.816;8.662;2023-02-28T00:22:54;4.57;;;1.60;;
21168;SDS011;10742;51.816;8.662;2023-02-28T00:26:09;2.90;;;1.27;;
21168;SDS011;10742;51.816;8.662;2023-02-28T00:29:17;2.13;;;1.33;;
21168;SDS011;10742;51.816;8.662;2023-02-28T00:32:19;3.03;;;1.37;;
21168;SDS011;10742;51.816;8.662;2023-02-28T00:35:22;5.77;;;1.60;;
21168;SDS011;10742;51.816;8.662;2023-02-28T00:38:55;4.43;;;1.40;;
21168;SDS011;10742;51.816;8.662;2023-02-28T00:41:58;2.97;;;1.47;;
21168;SDS011;10742;51.816;8.662;2023-02-28T00:45:01;2.17;;;1.50;;
21168;SDS011;10742;51.816;8.662;2023-02-28T00:48:13;2.73;;;1.43;;
21168;SDS011;10742;51.816;8.662;2023-02-28T00:51:15;1.60;;;1.07;;
21168;SDS011;10742;51.816;8.662;2023-02-28T00:54:18;1.30;;;1.00;;
21168;SDS011;10742;51.816;8.662;2023-02-28T00:57:21;3.23;;;1.17;;
21168;SDS011;10742;51.816;8.662;2023-02-28T01:00:24;3.07;;;1.10;;
21168;SDS011;10742;51.816;8.662;2023-02-28T01:03:26;2.60;;;1.33;;
21168;SDS011;10742;51.816;8.662;2023-02-28T01:06:29;4.00;;;1.30;;
21168;SDS011;10742;51.816;8.662;2023-02-28T01:09:33;4.70;;;1.37;;
21168;SDS011;10742;51.816;8.662;2023-02-28T01:12:35;3.70;;;1.83;;
21168;SDS011;10742;51.816;8.662;2023-02-28T01:19:01;4.57;;;1.47;;
21168;SDS011;10742;51.816;8.662;2023-02-28T01:22:07;6.40;;;1.70;;
21168;SDS011;10742;51.816;8.662;2023-02-28T01:25:10;4.67;;;2.00;;
21168;SDS011;10742;51.816;8.662;2023-02-28T01:28:16;8.87;;;2.40;;
21168;SDS011;10742;51.816;8.662;2023-02-28T01:31:19;7.53;;;2.33;;
21168;SDS011;10742;51.816;8.662;2023-02-28T01:34:23;7.83;;;2.50;;
21168;SDS011;10742;51.816;8.662;2023-02-28T01:37:26;5.60;;;2.20;;
21168;SDS011;10742;51.816;8.662;2023-02-28T01:40:28;6.50;;;2.10;;
21168;SDS011;10742;51.816;8.662;2023-02-28T01:43:35;2.77;;;1.50;;
21168;SDS011;10742;51.816;8.662;2023-02-28T01:46:55;5.80;;;1.70;;
21168;SDS011;10742;51.816;8.662;2023-02-28T01:49:58;3.27;;;1.20;;
21168;SDS011;10742;51.816;8.662;2023-02-28T01:53:05;3.93;;;1.30;;
21168;SDS011;10742;51.816;8.662;2023-02-28T01:56:11;1.63;;;1.20;;
21168;SDS011;10742;51.816;8.662;2023-02-28T01:59:45;4.90;;;1.50;;
21168;SDS011;10742;51.816;8.662;2023-02-28T02:02:53;2.10;;;1.30;;
21168;SDS011;10742;51.816;8.662;2023-02-28T02:06:01;4.50;;;1.10;;
21168;SDS011;10742;51.816;8.662;2023-02-28T02:09:04;1.83;;;1.30;;
21168;SDS011;10742;51.816;8.662;2023-02-28T02:12:28;1.93;;;0.97;;
21168;SDS011;10742;51.816;8.662;2023-02-28T02:16:04;1.90;;;1.10;;
21168;SDS011;10742;51.816;8.662;2023-02-28T02:22:50;4.97;;;1.07;;
21168;SDS011;10742;51.816;8.662;2023-02-28T02:29:43;1.43;;;1.10;;
21168;SDS011;10742;51.816;8.662;2023-02-28T02:33:03;1.67;;;1.10;;
21168;SDS011;10742;51.816;8.662;2023-02-28T02:39:39;5.03;;;1.47;;
21168;SDS011;10742;51.816;8.662;2023-02-28T02:42:52;1.77;;;1.00;;
21168;SDS011;10742;51.816;8.662;2023-02-28T02:46:08;2.37;;;1.00;;
21168;SDS011;10742;51.816;8.662;2023-02-28T02:49:27;2.97;;;1.10;;
21168;SDS011;10742;51.816;8.662;2023-02-28T02:52:35;1.27;;;0.83;;
21168;SDS011;10742;51.816;8.662;2023-02-28T02:55:42;2.03;;;1.00;;
21168;SDS011;10742;51.816;8.662;2023-02-28T02:58:59;4.53;;;1.10;;
21168;SDS011;10742;51.816;8.662;2023-02-28T03:02:18;4.63;;;1.60;;
21168;SDS011;10742;51.816;8.662;2023-02-28T03:05:26;1.43;;;1.00;;
21168;SDS011;10742;51.816;8.662;2023-02-28T03:08:37;0.80;;;0.80;;
21168;SDS011;10742;51.816;8.662;2023-02-28T03:11:40;2.20;;;1.07;;
21168;SDS011;10742;51.816;8.662;2023-02-28T03:14:51;3.30;;;1.07;;
21168;SDS011;10742;51.816;8.662;2023-02-28T03:18:11;2.40;;;0.90;;
21168;SDS011;10742;51.816;8.662;2023-02-28T03:25:06;2.33;;;1.03;;
21168;SDS011;10742;51.816;8.662;2023-02-28T03:28:43;1.97;;;0.90;;
21168;SDS011;10742;51.816;8.662;2023-02-28T03:31:54;3.57;;;1.10;;
21168;SDS011;10742;51.816;8.662;2023-02-28T03:35:18;3.43;;;0.97;;
21168;SDS011;10742;51.816;8.662;2023-02-28T03:38:30;1.27;;;0.90;;
21168;SDS011;10742;51.816;8.662;2023-02-28T03:41:46;1.67;;;1.10;;
21168;SDS011;10742;51.816;8.662;2023-02-28T03:44:59;2.03;;;1.17;;
21168;SDS011;10742;51.816;8.662;2023-02-28T03:48:10;3.50;;;1.40;;
21168;SDS011;10742;51.816;8.662;2023-02-28T03:51:19;2.40;;;1.07;;
21168;SDS011;10742;51.816;8.662;2023-02-28T03:54:28;1.57;;;0.90;;
21168;SDS011;10742;51.816;8.662;2023-02-28T04:04:29;1.13;;;0.93;;
21168;SDS011;10742;51.816;8.662;2023-02-28T04:07:33;1.93;;;1.10;;
21168;SDS011;10742;51.816;8.662;2023-02-28T04:10:36;1.40;;;0.93;;
21168;SDS011;10742;51.816;8.662;2023-02-28T04:13:39;5.10;;;1.20;;
21168;SDS011;10742;51.816;8.662;2023-02-28T04:16:42;2.60;;;1.20;;
21168;SDS011;10742;51.816;8.662;2023-02-28T04:19:48;1.83;;;1.20;;
21168;SDS011;10742;51.816;8.662;2023-02-28T04:22:51;1.07;;;0.97;;
21168;SDS011;10742;51.816;8.662;2023-02-28T04:25:55;3.20;;;1.50;;
21168;SDS011;10742;51.816;8.662;2023-02-28T04:28:57;3.27;;;1.77;;
21168;SDS011;10742;51.816;8.662;2023-02-28T04:32:08;3.13;;;1.40;;
21168;SDS011;10742;51.816;8.662;2023-02-28T04:35:10;1.87;;;1.27;;
21168;SDS011;10742;51.816;8.662;2023-02-28T04:38:13;4.60;;;1.53;;
21168;SDS011;10742;51.816;8.662;2023-02-28T04:41:16;2.40;;;1.20;;
21168;SDS011;10742;51.816;8.662;2023-02-28T04:44:19;1.80;;;1.30;;
21168;SDS011;10742;51.816;8.662;2023-02-28T04:47:23;4.90;;;1.63;;
21168;SDS011;10742;51.816;8.662;2023-02-28T04:50:26;3.43;;;1.80;;
21168;SDS011;10742;51.816;8.662;2023-02-28T04:53:29;5.60;;;2.20;;
21168;SDS011;10742;51.816;8.662;2023-02-28T04:56:31;10.70;;;2.53;;
21168;SDS011;10742;51.816;8.662;2023-02-28T04:59:34;13.37;;;3.53;;
21168;SDS011;10742;51.816;8.662;2023-02-28T05:02:37;14.10;;;3.13;;
21168;SDS011;10742;51.816;8.662;2023-02-28T05:05:41;10.20;;;2.83;;
21168;SDS011;10742;51.816;8.662;2023-02-28T05:08:43;12.43;;;2.53;;
21168;SDS011;10742;51.816;8.662;2023-02-28T05:11:49;11.10;;;2.20;;
21168;SDS011;10742;51.816;8.662;2023-02-28T05:14:51;4.67;;;2.10;;
21168;SDS011;10742;51.816;8.662;2023-02-28T05:17:54;4.17;;;1.70;;
21168;SDS011;10742;51.816;8.662;2023-02-28T05:20:56;4.33;;;1.80;;
21168;SDS011;10742;51.816;8.662;2023-02-28T05:24:01;2.87;;;1.40;;
21168;SDS011;10742;51.816;8.662;2023-02-28T05:27:06;5.87;;;1.67;;
21168;SDS011;10742;51.816;8.662;2023-02-28T05:30:10;1.93;;;1.37;;
21168;SDS011;10742;51.816;8.662;2023-02-28T05:33:13;2.53;;;1.17;;
21168;SDS011;10742;51.816;8.662;2023-02-28T05:36:16;6.77;;;1.40;;
21168;SDS011;10742;51.816;8.662;2023-02-28T05:39:22;1.73;;;1.27;;
21168;SDS011;10742;51.816;8.662;2023-02-28T05:42:25;2.37;;;1.30;;
21168;SDS011;10742;51.816;8.662;2023-02-28T05:45:27;2.57;;;1.67;;
21168;SDS011;10742;51.816;8.662;2023-02-28T05:48:30;3.00;;;1.50;;
21168;SDS011;10742;51.816;8.662;2023-02-28T05:51:34;2.20;;;1.30;;
21168;SDS011;10742;51.816;8.662;2023-02-28T05:54:38;6.50;;;1.73;;
21168;SDS011;10742;51.816;8.662;2023-02-28T05:57:44;5.83;;;2.00;;
21168;SDS011;10742;51.816;8.662;2023-02-28T06:00:47;9.63;;;4.73;;
21168;SDS011;10742;51.816;8.662;2023-02-28T06:03:50;5.20;;;2.80;;
21168;SDS011;10742;51.816;8.662;2023-02-28T06:06:56;5.70;;;2.47;;
21168;SDS011;10742;51.816;8.662;2023-02-28T06:09:59;4.43;;;2.23;;
21168;SDS011;10742;51.816;8.662;2023-02-28T06:13:04;7.77;;;2.00;;
21168;SDS011;10742;51.816;8.662;2023-02-28T06:16:08;5.27;;;1.80;;
21168;SDS011;10742;51.816;8.662;2023-02-28T06:19:14;4.30;;;1.70;;
21168;SDS011;10742;51.816;8.662;2023-02-28T06:25:44;5.20;;;2.33;;
21168;SDS011;10742;51.816;8.662;2023-02-28T06:28:47;5.47;;;2.23;;
21168;SDS011;10742;51.816;8.662;2023-02-28T06:31:50;6.40;;;2.17;;
21168;SDS011;10742;51.816;8.662;2023-02-28T06:34:52;5.30;;;2.20;;
21168;SDS011;10742;51.816;8.662;2023-02-28T06:38:05;4.37;;;1.93;;
21168;SDS011;10742;51.816;8.662;2023-02-28T06:41:09;4.30;;;2.37;;
21168;SDS011;10742;51.816;8.662;2023-02-28T06:44:15;7.03;;;1.80;;
21168;SDS011;10742;51.816;8.662;2023-02-28T06:47:19;2.37;;;1.70;;
21168;SDS011;10742;51.816;8.662;2023-02-28T06:50:21;3.10;;;1.90;;
21168;SDS011;10742;51.816;8.662;2023-02-28T06:53:24;9.70;;;3.00;;
21168;SDS011;10742;51.816;8.662;2023-02-28T06:56:26;4.20;;;2.43;;
21168;SDS011;10742;51.816;8.662;2023-02-28T06:59:29;4.10;;;2.10;;
21168;SDS011;10742;51.816;8.662;2023-02-28T07:02:33;5.20;;;1.97;;
21168;SDS011;10742;51.816;8.662;2023-02-28T07:05:37;5.80;;;2.50;;
21168;SDS011;10742;51.816;8.662;2023-02-28T07:08:41;4.73;;;2.13;;
21168;SDS011;10742;51.816;8.662;2023-02-28T07:11:44;3.17;;;2.10;;
21168;SDS011;10742;51.816;8.662;2023-02-28T07:14:47;6.67;;;1.97;;
21168;SDS011;10742;51.816;8.662;2023-02-28T07:17:49;5.63;;;2.00;;
21168;SDS011;10742;51.816;8.662;2023-02-28T07:20:52;2.90;;;1.77;;
21168;SDS011;10742;51.816;8.662;2023-02-28T07:23:55;3.50;;;1.90;;
21168;SDS011;10742;51.816;8.662;2023-02-28T07:26:58;11.00;;;2.30;;
21168;SDS011;10742;51.816;8.662;2023-02-28T07:30:02;5.20;;;2.30;;
21168;SDS011;10742;51.816;8.662;2023-02-28T07:36:22;5.27;;;1.90;;
21168;SDS011;10742;51.816;8.662;2023-02-28T07:39:25;3.07;;;1.80;;
21168;SDS011;10742;51.816;8.662;2023-02-28T07:42:30;2.93;;;1.73;;
21168;SDS011;10742;51.816;8.662;2023-02-28T07:45:41;6.27;;;2.23;;
21168;SDS011;10742;51.816;8.662;2023-02-28T07:48:47;3.50;;;1.93;;
21168;SDS011;10742;51.816;8.662;2023-02-28T07:51:50;2.53;;;1.53;;
21168;SDS011;10742;51.816;8.662;2023-02-28T07:54:53;3.30;;;1.63;;
21168;SDS011;10742;51.816;8.662;2023-02-28T07:57:56;3.57;;;1.93;;
21168;SDS011;10742;51.816;8.662;2023-02-28T08:01:05;3.13;;;1.53;;
21168;SDS011;10742;51.816;8.662;2023-02-28T08:04:12;6.60;;;1.80;;
21168;SDS011;10742;51.816;8.662;2023-02-28T08:07:15;3.10;;;1.80;;
21168;SDS011;10742;51.816;8.662;2023-02-28T08:10:19;2.60;;;1.60;;
21168;SDS011;10742;51.816;8.662;2023-02-28T08:13:22;3.73;;;1.60;;
21168;SDS011;10742;51.816;8.662;2023-02-28T08:16:24;6.53;;;1.87;;
21168;SDS011;10742;51.816;8.662;2023-02-28T08:19:27;2.50;;;1.80;;
21168;SDS011;10742;51.816;8.662;2023-02-28T08:22:30;3.27;;;1.90;;
21168;SDS011;10742;51.816;8.662;2023-02-28T08:25:33;2.63;;;1.70;;
21168;SDS011;10742;51.816;8.662;2023-02-28T08:28:36;5.90;;;1.77;;
21168;SDS011;10742;51.816;8.662;2023-02-28T08:31:38;5.60;;;1.77;;
21168;SDS011;10742;51.816;8.662;2023-02-28T08:34:44;2.73;;;1.27;;
21168;SDS011;10742;51.816;8.662;2023-02-28T08:38:07;5.23;;;2.00;;
21168;SDS011;10742;51.816;8.662;2023-02-28T08:41:28;6.33;;;1.83;;
21168;SDS011;10742;51.816;8.662;2023-02-28T08:44:52;5.53;;;1.90;;
21168;SDS011;10742;51.816;8.662;2023-02-28T08:47:59;2.87;;;1.90;;
21168;SDS011;10742;51.816;8.662;2023-02-28T08:51:11;7.97;;;2.20;;
21168;SDS011;10742;51.816;8.662;2023-02-28T08:54:16;3.53;;;1.73;;
21168;SDS011;10742;51.816;8.662;2023-02-28T08:57:21;3.00;;;1.70;;
21168;SDS011;10742;51.816;8.662;2023-02-28T09:00:24;3.80;;;1.90;;
21168;SDS011;10742;51.816;8.662;2023-02-28T09:03:28;3.57;;;1.60;;
21168;SDS011;10742;51.816;8.662;2023-02-28T09:06:38;5.60;;;1.87;;
21168;SDS011;10742;51.816;8.662;2023-02-28T09:09:41;1.93;;;1.40;;
21168;SDS011;10742;51.816;8.662;2023-02-28T09:13:05;4.03;;;1.67;;
21168;SDS011;10742;51.816;8.662;2023-02-28T09:16:24;3.37;;;1.70;;
21168;SDS011;10742;51.816;8.662;2023-02-28T09:19:39;2.13;;;1.70;;
21168;SDS011;10742;51.816;8.662;2023-02-28T09:22:44;2.53;;;1.43;;
21168;SDS011;10742;51.816;8.662;2023-02-28T09:26:29;7.10;;;1.67;;
21168;SDS011;10742;51.816;8.662;2023-02-28T09:33:13;4.63;;;1.60;;
21168;SDS011;10742;51.816;8.662;2023-02-28T09:36:15;3.20;;;1.40;;
21168;SDS011;10742;51.816;8.662;2023-02-28T09:39:18;3.23;;;1.57;;
21168;SDS011;10742;51.816;8.662;2023-02-28T09:42:23;3.17;;;1.50;;
21168;SDS011;10742;51.816;8.662;2023-02-28T09:45:33;2.83;;;2.07;;
21168;SDS011;10742;51.816;8.662;2023-02-28T09:48:42;3.37;;;2.07;;
21168;SDS011;10742;51.816;8.662;2023-02-28T09:51:49;5.40;;;2.00;;
21168;SDS011;10742;51.816;8.662;2023-02-28T09:54:55;6.30;;;2.50;;
21168;SDS011;10742;51.816;8.662;2023-02-28T09:58:01;3.13;;;2.00;;
21168;SDS011;10742;51.816;8.662;2023-02-28T10:01:12;3.23;;;1.83;;
21168;SDS011;10742;51.816;8.662;2023-02-28T10:08:09;4.03;;;1.97;;
21168;SDS011;10742;51.816;8.662;2023-02-28T10:11:35;3.03;;;2.00;;
21168;SDS011;10742;51.816;8.662;2023-02-28T10:14:59;3.20;;;2.03;;
21168;SDS011;10742;51.816;8.662;2023-02-28T10:18:28;4.17;;;1.97;;
21168;SDS011;10742;51.816;8.662;2023-02-28T10:29:15;7.10;;;2.00;;
21168;SDS011;10742;51.816;8.662;2023-02-28T10:32:19;4.33;;;1.97;;
21168;SDS011;10742;51.816;8.662;2023-02-28T10:35:25;4.30;;;2.03;;
21168;SDS011;10742;51.816;8.662;2023-02-28T10:38:32;3.77;;;1.80;;
21168;SDS011;10742;51.816;8.662;2023-02-28T10:41:38;3.13;;;1.87;;
21168;SDS011;10742;51.816;8.662;2023-02-28T10:44:44;5.60;;;2.10;;
21168;SDS011;10742;51.816;8.662;2023-02-28T10:50:57;6.03;;;2.10;;
21168;SDS011;10742;51.816;8.662;2023-02-28T10:54:01;4.27;;;1.97;;
21168;SDS011;10742;51.816;8.662;2023-02-28T10:57:13;6.77;;;2.00;;
21168;SDS011;10742;51.816;8.662;2023-02-28T11:00:23;4.70;;;1.87;;
21168;SDS011;10742;51.816;8.662;2023-02-28T11:03:31;3.37;;;1.80;;
21168;SDS011;10742;51.816;8.662;2023-02-28T11:06:35;2.53;;;1.77;;
21168;SDS011;10742;51.816;8.662;2023-02-28T11:09:39;4.50;;;1.87;;
21168;SDS011;10742;51.816;8.662;2023-02-28T11:12:42;4.63;;;1.97;;
21168;SDS011;10742;51.816;8.662;2023-02-28T11:15:57;4.20;;;2.17;;
21168;SDS011;10742;51.816;8.662;2023-02-28T11:19:02;6.33;;;2.00;;
21168;SDS011;10742;51.816;8.662;2023-02-28T11:22:21;5.10;;;2.50;;
21168;SDS011;10742;51.816;8.662;2023-02-28T11:25:28;4.73;;;2.13;;
21168;SDS011;10742;51.816;8.662;2023-02-28T11:28:35;4.03;;;2.00;;
21168;SDS011;10742;51.816;8.662;2023-02-28T11:31:42;2.80;;;2.10;;
21168;SDS011;10742;51.816;8.662;2023-02-28T11:34:45;6.13;;;2.20;;
21168;SDS011;10742;51.816;8.662;2023-02-28T11:37:49;5.33;;;2.10;;
21168;SDS011;10742;51.816;8.662;2023-02-28T12:03:55;5.07;;;1.97;;
21168;SDS011;10742;51.816;8.662;2023-02-28T12:07:03;3.50;;;2.00;;
21168;SDS011;10742;51.816;8.662;2023-02-28T12:13:23;4.60;;;2.13;;
21168;SDS011;10742;51.816;8.662;2023-02-28T12:20:21;4.43;;;2.10;;
21168;SDS011;10742;51.816;8.662;2023-02-28T12:27:11;2.40;;;1.67;;
21168;SDS011;10742;51.816;8.662;2023-02-28T12:30:24;4.43;;;2.00;;
21168;SDS011;10742;51.816;8.662;2023-02-28T12:33:34;3.50;;;1.80;;
21168;SDS011;10742;51.816;8.662;2023-02-28T12:36:40;7.23;;;2.20;;
21168;SDS011;10742;51.816;8.662;2023-02-28T12:39:46;3.43;;;1.80;;
21168;SDS011;10742;51.816;8.662;2023-02-28T12:43:11;2.17;;;1.67;;
21168;SDS011;10742;51.816;8.662;2023-02-28T12:46:25;5.63;;;2.57;;
21168;SDS011;10742;51.816;8.662;2023-02-28T12:50:16;5.73;;;2.70;;
21168;SDS011;10742;51.816;8.662;2023-02-28T12:53:24;4.13;;;2.07;;
21168;SDS011;10742;51.816;8.662;2023-02-28T12:59:58;5.13;;;2.40;;
21168;SDS011;10742;51.816;8.662;2023-02-28T13:10:02;4.10;;;2.30;;
21168;SDS011;10742;51.816;8.662;2023-02-28T13:13:06;4.73;;;2.10;;
21168;SDS011;10742;51.816;8.662;2023-02-28T13:16:15;4.37;;;2.20;;
21168;SDS011;10742;51.816;8.662;2023-02-28T13:19:19;5.40;;;2.17;;
21168;SDS011;10742;51.816;8.662;2023-02-28T13:35:34;3.87;;;2.10;;
21168;SDS011;10742;51.816;8.662;2023-02-28T13:38:42;6.83;;;2.63;;
21168;SDS011;10742;51.816;8.662;2023-02-28T13:41:54;6.87;;;2.30;;
21168;SDS011;10742;51.816;8.662;2023-02-28T13:45:21;5.03;;;2.53;;
21168;SDS011;10742;51.816;8.662;2023-02-28T13:48:24;7.40;;;2.50;;
21168;SDS011;10742;51.816;8.662;2023-02-28T13:51:41;6.60;;;2.30;;
21168;SDS011;10742;51.816;8.662;2023-02-28T14:04:47;4.07;;;2.50;;
21168;SDS011;10742;51.816;8.662;2023-02-28T14:08:16;5.50;;;2.10;;
21168;SDS011;10742;51.816;8.662;2023-02-28T14:11:36;4.93;;;2.20;;
21168;SDS011;10742;51.816;8.662;2023-02-28T14:17:55;4.27;;;2.00;;
21168;SDS011;10742;51.816;8.662;2023-02-28T14:21:32;6.57;;;2.10;;
21168;SDS011;10742;51.816;8.662;2023-02-28T14:25:04;4.73;;;2.20;;
21168;SDS011;10742;51.816;8.662;2023-02-28T14:32:15;6.00;;;2.20;;
21168;SDS011;10742;51.816;8.662;2023-02-28T14:39:01;4.70;;;2.43;;
21168;SDS011;10742;51.816;8.662;2023-02-28T14:45:36;4.97;;;2.10;;
21168;SDS011;10742;51.816;8.662;2023-02-28T14:48:39;7.03;;;2.60;;
21168;SDS011;10742;51.816;8.662;2023-02-28T14:51:42;5.43;;;2.20;;
21168;SDS011;10742;51.816;8.662;2023-02-28T14:54:45;4.77;;;2.30;;
21168;SDS011;10742;51.816;8.662;2023-02-28T14:57:56;4.10;;;2.20;;
21168;SDS011;10742;51.816;8.662;2023-02-28T15:01:02;6.87;;;2.27;;
21168;SDS011;10742;51.816;8.662;2023-02-28T15:04:12;3.60;;;2.17;;
21168;SDS011;10742;51.816;8.662;2023-02-28T15:07:27;6.90;;;3.13;;
21168;SDS011;10742;51.816;8.662;2023-02-28T15:10:37;5.17;;;2.77;;
21168;SDS011;10742;51.816;8.662;2023-02-28T15:13:51;4.97;;;2.37;;
21168;SDS011;10742;51.816;8.662;2023-02-28T15:16:57;4.93;;;2.67;;
21168;SDS011;10742;51.816;8.662;2023-02-28T15:20:03;5.80;;;2.40;;
21168;SDS011;10742;51.816;8.662;2023-02-28T15:23:06;6.60;;;2.60;;
21168;SDS011;10742;51.816;8.662;2023-02-28T15:26:12;5.20;;;2.40;;
21168;SDS011;10742;51.816;8.662;2023-02-28T15:29:25;7.50;;;2.80;;
21168;SDS011;10742;51.816;8.662;2023-02-28T15:32:36;5.03;;;2.40;;
21168;SDS011;10742;51.816;8.662;2023-02-28T15:35:41;6.17;;;2.40;;
21168;SDS011;10742;51.816;8.662;2023-02-28T15:38:44;6.87;;;3.47;;
21168;SDS011;10742;51.816;8.662;2023-02-28T15:41:51;4.60;;;2.37;;
21168;SDS011;10742;51.816;8.662;2023-02-28T15:44:54;6.27;;;2.60;;
21168;SDS011;10742;51.816;8.662;2023-02-28T15:47:56;5.17;;;2.30;;
21168;SDS011;10742;51.816;8.662;2023-02-28T15:54:12;7.00;;;2.70;;
21168;SDS011;10742;51.816;8.662;2023-02-28T15:57:23;5.70;;;2.70;;
21168;SDS011;10742;51.816;8.662;2023-02-28T16:00:29;8.63;;;3.20;;
21168;SDS011;10742;51.816;8.662;2023-02-28T16:03:35;9.30;;;2.90;;
21168;SDS011;10742;51.816;8.662;2023-02-28T16:06:46;6.03;;;2.63;;
21168;SDS011;10742;51.816;8.662;2023-02-28T16:10:18;7.43;;;2.97;;
21168;SDS011;10742;51.816;8.662;2023-02-28T16:13:29;5.93;;;2.50;;
21168;SDS011;10742;51.816;8.662;2023-02-28T16:16:31;5.63;;;2.70;;
21168;SDS011;10742;51.816;8.662;2023-02-28T16:19:35;6.47;;;2.53;;
21168;SDS011;10742;51.816;8.662;2023-02-28T16:22:38;7.23;;;3.00;;
21168;SDS011;10742;51.816;8.662;2023-02-28T16:25:42;5.40;;;2.70;;
21168;SDS011;10742;51.816;8.662;2023-02-28T16:28:51;6.13;;;2.40;;
21168;SDS011;10742;51.816;8.662;2023-02-28T16:31:55;4.33;;;2.47;;
21168;SDS011;10742;51.816;8.662;2023-02-28T16:34:58;9.33;;;2.83;;
21168;SDS011;10742;51.816;8.662;2023-02-28T16:38:00;6.00;;;2.87;;
21168;SDS011;10742;51.816;8.662;2023-02-28T16:41:03;4.97;;;2.70;;
21168;SDS011;10742;51.816;8.662;2023-02-28T16:44:13;6.10;;;2.67;;
21168;SDS011;10742;51.816;8.662;2023-02-28T16:47:30;5.80;;;2.70;;
21168;SDS011;10742;51.816;8.662;2023-02-28T16:50:35;4.43;;;2.57;;
21168;SDS011;10742;51.816;8.662;2023-02-28T16:53:37;5.70;;;2.43;;
21168;SDS011;10742;51.816;8.662;2023-02-28T16:56:42;4.47;;;2.37;;
21168;SDS011;10742;51.816;8.662;2023-02-28T16:59:47;7.57;;;2.70;;
21168;SDS011;10742;51.816;8.662;2023-02-28T17:02:52;5.77;;;2.60;;
21168;SDS011;10742;51.816;8.662;2023-02-28T17:05:55;4.77;;;2.80;;
21168;SDS011;10742;51.816;8.662;2023-02-28T17:08:59;7.80;;;3.27;;
21168;SDS011;10742;51.816;8.662;2023-02-28T17:12:01;6.77;;;3.00;;
21168;SDS011;10742;51.816;8.662;2023-02-28T17:15:05;5.47;;;2.77;;
21168;SDS011;10742;51.816;8.662;2023-02-28T17:18:09;5.53;;;2.77;;
21168;SDS011;10742;51.816;8.662;2023-02-28T17:21:17;5.27;;;2.53;;
21168;SDS011;10742;51.816;8.662;2023-02-28T17:24:20;4.77;;;2.73;;
21168;SDS011;10742;51.816;8.662;2023-02-28T17:27:31;10.53;;;3.03;;
21168;SDS011;10742;51.816;8.662;2023-02-28T17:30:34;3.70;;;2.43;;
21168;SDS011;10742;51.816;8.662;2023-02-28T17:33:38;5.73;;;2.80;;
21168;SDS011;10742;51.816;8.662;2023-02-28T17:36:41;9.07;;;3.23;;
21168;SDS011;10742;51.816;8.662;2023-02-28T17:39:43;6.40;;;3.10;;
21168;SDS011;10742;51.816;8.662;2023-02-28T17:42:46;6.80;;;2.97;;
21168;SDS011;10742;51.816;8.662;2023-02-28T17:45:48;6.00;;;3.20;;
21168;SDS011;10742;51.816;8.662;2023-02-28T17:48:52;8.20;;;3.60;;
21168;SDS011;10742;51.816;8.662;2023-02-28T17:51:55;8.40;;;3.40;;
21168;SDS011;10742;51.816;8.662;2023-02-28T17:54:57;18.53;;;4.90;;
21168;SDS011;10742;51.816;8.662;2023-02-28T17:58:01;11.83;;;4.37;;
21168;SDS011;10742;51.816;8.662;2023-02-28T18:01:08;11.40;;;3.87;;
21168;SDS011;10742;51.816;8.662;2023-02-28T18:04:11;9.10;;;3.93;;
21168;SDS011;10742;51.816;8.662;2023-02-28T18:07:14;6.87;;;3.13;;
21168;SDS011;10742;51.816;8.662;2023-02-28T18:10:19;6.37;;;2.87;;
21168;SDS011;10742;51.816;8.662;2023-02-28T18:13:33;5.60;;;2.47;;
21168;SDS011;10742;51.816;8.662;2023-02-28T18:16:39;5.07;;;2.70;;
21168;SDS011;10742;51.816;8.662;2023-02-28T18:19:46;5.47;;;2.80;;
21168;SDS011;10742;51.816;8.662;2023-02-28T18:22:51;6.27;;;2.90;;
21168;SDS011;10742;51.816;8.662;2023-02-28T18:25:53;7.70;;;2.60;;
21168;SDS011;10742;51.816;8.662;2023-02-28T18:28:55;7.40;;;2.87;;
21168;SDS011;10742;51.816;8.662;2023-02-28T18:31:58;8.57;;;2.73;;
21168;SDS011;10742;51.816;8.662;2023-02-28T18:35:03;7.83;;;3.20;;
21168;SDS011;10742;51.816;8.662;2023-02-28T18:38:18;9.83;;;3.27;;
21168;SDS011;10742;51.816;8.662;2023-02-28T18:41:21;6.27;;;3.30;;
21168;SDS011;10742;51.816;8.662;2023-02-28T18:44:35;7.67;;;3.43;;
21168;SDS011;10742;51.816;8.662;2023-02-28T18:47:39;15.37;;;4.50;;
21168;SDS011;10742;51.816;8.662;2023-02-28T18:50:41;12.87;;;4.23;;
21168;SDS011;10742;51.816;8.662;2023-02-28T18:53:46;11.33;;;3.97;;
21168;SDS011;10742;51.816;8.662;2023-02-28T18:57:17;7.77;;;3.70;;
21168;SDS011;10742;51.816;8.662;2023-02-28T19:00:19;11.80;;;3.97;;
21168;SDS011;10742;51.816;8.662;2023-02-28T19:03:24;10.43;;;3.83;;
21168;SDS011;10742;51.816;8.662;2023-02-28T19:06:29;9.50;;;4.53;;
21168;SDS011;10742;51.816;8.662;2023-02-28T19:09:32;12.83;;;4.37;;
21168;SDS011;10742;51.816;8.662;2023-02-28T19:12:35;12.07;;;4.43;;
21168;SDS011;10742;51.816;8.662;2023-02-28T19:15:39;18.77;;;5.60;;
21168;SDS011;10742;51.816;8.662;2023-02-28T19:18:42;20.17;;;5.47;;
21168;SDS011;10742;51.816;8.662;2023-02-28T19:21:45;20.20;;;5.60;;
21168;SDS011;10742;51.816;8.662;2023-02-28T19:24:52;18.57;;;5.07;;
21168;SDS011;10742;51.816;8.662;2023-02-28T19:27:54;19.13;;;5.23;;
21168;SDS011;10742;51.816;8.662;2023-02-28T19:30:57;17.53;;;5.00;;
21168;SDS011;10742;51.816;8.662;2023-02-28T19:33:59;20.00;;;4.83;;
21168;SDS011;10742;51.816;8.662;2023-02-28T19:37:02;17.57;;;5.10;;
21168;SDS011;10742;51.816;8.662;2023-02-28T19:40:09;24.97;;;7.50;;
21168;SDS011;10742;51.816;8.662;2023-02-28T19:43:15;18.93;;;5.30;;
21168;SDS011;10742;51.816;8.662;2023-02-28T19:46:32;19.00;;;6.00;;
21168;SDS011;10742;51.816;8.662;2023-02-28T19:49:34;13.90;;;4.70;;
21168;SDS011;10742;51.816;8.662;2023-02-28T19:52:36;11.47;;;4.30;;
21168;SDS011;10742;51.816;8.662;2023-02-28T19:55:40;10.27;;;4.13;;
21168;SDS011;10742;51.816;8.662;2023-02-28T19:58:55;9.40;;;3.90;;
21168;SDS011;10742;51.816;8.662;2023-02-28T20:01:58;13.53;;;4.37;;
21168;SDS011;10742;51.816;8.662;2023-02-28T20:05:01;11.97;;;4.23;;
21168;SDS011;10742;51.816;8.662;2023-02-28T20:08:03;12.23;;;4.87;;
21168;SDS011;10742;51.816;8.662;2023-02-28T20:11:10;15.00;;;5.70;;
21168;SDS011;10742;51.816;8.662;2023-02-28T20:14:14;15.20;;;5.10;;
21168;SDS011;10742;51.816;8.662;2023-02-28T20:17:18;13.83;;;4.93;;
21168;SDS011;10742;51.816;8.662;2023-02-28T20:20:20;13.53;;;5.33;;
21168;SDS011;10742;51.816;8.662;2023-02-28T20:23:26;13.93;;;4.33;;
21168;SDS011;10742;51.816;8.662;2023-02-28T20:26:28;11.53;;;4.57;;
21168;SDS011;10742;51.816;8.662;2023-02-28T20:29:32;11.60;;;4.47;;
21168;SDS011;10742;51.816;8.662;2023-02-28T20:32:36;13.57;;;4.60;;
21168;SDS011;10742;51.816;8.662;2023-02-28T20:35:40;9.40;;;4.20;;
21168;SDS011;10742;51.816;8.662;2023-02-28T20:38:43;14.97;;;5.07;;
21168;SDS011;10742;51.816;8.662;2023-02-28T20:41:45;17.07;;;5.83;;
21168;SDS011;10742;51.816;8.662;2023-02-28T20:44:48;23.10;;;6.90;;
21168;SDS011;10742;51.816;8.662;2023-02-28T20:47:50;19.33;;;6.77;;
21168;SDS011;10742;51.816;8.662;2023-02-28T20:50:54;36.63;;;13.67;;
21168;SDS011;10742;51.816;8.662;2023-02-28T20:53:58;31.20;;;10.30;;
21168;SDS011;10742;51.816;8.662;2023-02-28T20:57:00;22.60;;;7.80;;
21168;SDS011;10742;51.816;8.662;2023-02-28T21:00:05;17.03;;;6.37;;